Carapina, Brazil
Current Conditions -  °F | °C
As of 4:00 AM on Wednesday 22 Oct 2014 (Local Time) from SBVT Reporting Station
Light Rain Light Rain  
Wind Chill: 68°   Ceiling: 1500
Heat Index: 68°   Visibility: 4mi
Dew Point: 63°   Wind: 10mph
Humidity: 83%   Direction: 190°S
Pressure: 30.06"   Gusts: NA
Location:  20.23°S, 40.28°W
Report Text: SBVT 220600Z 19009KT 6000 -RA BKN015 OVC030 20/17 Q1018
Loading
Personal Weather Stations






























Interactive Weather Map
Tropical Storm Tracking
New forecast layout! Learn more

10-Day Weather Forecast

Advertisements
Track Severe Weather on mobile